Time;durP1;ratioP1;P1;durP2;ratioP2;P2;SDS_P1;SDS_P2;PMS_P1;PMS_P2;Temp;Humidity;BMP_temperature;BMP_pressure;BME280_temperature;BME280_humidity;BME280_pressure;Samples;Min_cycle;Max_cycle;Signal;HPM_P1;HPM_P2
2023/05/04 00:00:42;;;;;;;;;;;6.70;99.90;;;;;;5099673;27;20313;-76
2023/05/04 00:03:07;;;;;;;;;;;6.80;99.90;;;;;;5094485;27;20037;-76
2023/05/04 00:05:33;;;;;;;;;;;6.70;99.90;;;;;;5097074;27;19928;-77
2023/05/04 00:07:59;;;;;;;;;;;6.60;99.90;;;;;;5097507;27;19939;-76
2023/05/04 00:10:26;;;;;;;;;;;6.60;99.90;;;;;;5097124;27;20300;-76
2023/05/04 00:12:52;;;;;;;;;;;6.60;99.90;;;;;;5101263;27;19939;-76
2023/05/04 00:15:18;;;;;;;;;;;6.50;99.90;;;;;;5097051;27;19999;-76
2023/05/04 00:17:44;;;;;;;;;;;6.60;99.90;;;;;;5079678;28;19924;-76
2023/05/04 00:20:10;;;;;;;;;;;6.50;99.90;;;;;;5098543;27;19927;-76
2023/05/04 00:22:35;;;;;;;;;;;6.50;99.90;;;;;;5092786;28;19993;-76
2023/05/04 00:25:01;;;;;;;;;;;6.50;99.90;;;;;;5101446;27;19927;-76
2023/05/04 00:27:26;;;;;;;;;;;6.40;99.90;;;;;;5095686;27;19938;-76
2023/05/04 00:29:52;;;;;;;;;;;6.40;99.90;;;;;;5095799;27;19970;-76
2023/05/04 00:32:18;;;;;;;;;;;6.40;99.90;;;;;;5073576;27;19923;-76
2023/05/04 00:34:44;;;;;;;;;;;6.40;99.90;;;;;;5097566;27;20241;-75
2023/05/04 00:37:09;;;;;;;;;;;6.40;99.90;;;;;;5094411;27;19932;-76
2023/05/04 00:39:35;;;;;;;;;;;6.30;99.90;;;;;;5095122;27;20167;-76
2023/05/04 00:42:01;;;;;;;;;;;6.30;99.90;;;;;;5082524;27;19939;-76
2023/05/04 00:44:27;;;;;;;;;;;6.20;99.90;;;;;;5099142;27;20338;-76
2023/05/04 00:46:53;;;;;;;;;;;6.30;99.90;;;;;;5101748;27;19936;-76
2023/05/04 00:49:20;;;;;;;;;;;6.20;99.90;;;;;;5104121;27;19931;-76
2023/05/04 00:51:46;;;;;;;;;;;6.20;99.90;;;;;;5073044;27;19928;-76
2023/05/04 00:54:13;;;;;;;;;;;6.10;99.90;;;;;;5103527;27;19931;-76
2023/05/04 00:56:42;;;;;;;;;;;6.30;99.90;;;;;;5099511;27;20733;-77
2023/05/04 00:59:07;;;;;;;;;;;6.20;99.90;;;;;;5099986;27;19934;-76
2023/05/04 01:01:33;;;;;;;;;;;6.10;99.90;;;;;;5095863;27;20991;-76
2023/05/04 01:03:59;;;;;;;;;;;6.20;99.90;;;;;;5103571;27;19927;-76
2023/05/04 01:06:37;;;;;;;;;;;6.10;99.90;;;;;;5081161;27;20050;-76
2023/05/04 01:09:06;;;;;;;;;;;6.10;99.90;;;;;;5102017;27;19938;-76
2023/05/04 01:11:46;;;;;;;;;;;6.10;99.90;;;;;;5109756;27;19936;-76
2023/05/04 01:14:13;;;;;;;;;;;6.00;99.90;;;;;;5117424;27;19978;-76
2023/05/04 01:16:38;;;;;;;;;;;6.20;99.90;;;;;;5095479;27;19981;-76
2023/05/04 01:19:05;;;;;;;;;;;6.20;99.90;;;;;;5121376;27;19927;-76
2023/05/04 01:21:30;;;;;;;;;;;6.10;99.90;;;;;;5116449;27;20380;-76
2023/05/04 01:23:56;;;;;;;;;;;6.10;99.90;;;;;;5101959;27;19953;-76
2023/05/04 01:26:24;;;;;;;;;;;6.10;99.90;;;;;;5099047;27;19927;-76
2023/05/04 01:29:05;;;;;;;;;;;6.10;99.90;;;;;;5118910;27;19934;-76
2023/05/04 01:31:31;;;;;;;;;;;6.10;99.90;;;;;;5113764;27;19964;-76
2023/05/04 01:33:57;;;;;;;;;;;6.00;99.90;;;;;;5101555;27;19952;-75
2023/05/04 01:36:23;;;;;;;;;;;6.00;99.90;;;;;;5096800;27;19933;-76
2023/05/04 01:38:52;;;;;;;;;;;6.10;99.90;;;;;;5114989;27;20308;-76
2023/05/04 01:41:17;;;;;;;;;;;6.10;99.90;;;;;;5115288;27;20201;-76
2023/05/04 01:43:43;;;;;;;;;;;6.00;99.90;;;;;;5119391;27;19927;-76
2023/05/04 01:46:09;;;;;;;;;;;5.90;99.90;;;;;;5116704;27;19927;-76
2023/05/04 01:48:34;;;;;;;;;;;6.00;99.90;;;;;;5095089;27;20345;-76
2023/05/04 01:51:00;;;;;;;;;;;6.00;99.90;;;;;;5107200;27;19941;-76
2023/05/04 01:53:25;;;;;;;;;;;6.00;99.90;;;;;;5114841;27;20479;-76
2023/05/04 01:55:51;;;;;;;;;;;6.00;99.90;;;;;;5095908;27;19935;-76
2023/05/04 01:58:18;;;;;;;;;;;6.00;99.90;;;;;;5098637;27;19941;-76
2023/05/04 02:00:44;;;;;;;;;;;6.10;99.90;;;;;;5111749;27;20647;-76
2023/05/04 02:03:10;;;;;;;;;;;6.10;99.90;;;;;;5111723;27;20006;-76
2023/05/04 02:05:35;;;;;;;;;;;6.00;99.90;;;;;;5109142;27;20026;-76
2023/05/04 02:08:01;;;;;;;;;;;5.90;99.90;;;;;;5114761;27;19928;-76
2023/05/04 02:10:26;;;;;;;;;;;6.00;99.90;;;;;;5115339;27;20439;-76
2023/05/04 02:12:53;;;;;;;;;;;5.90;99.90;;;;;;5115381;27;20387;-76
2023/05/04 02:15:19;;;;;;;;;;;6.00;99.90;;;;;;5099194;27;22260;-76
2023/05/04 02:17:45;;;;;;;;;;;6.00;99.90;;;;;;5097075;27;19928;-76
2023/05/04 02:20:11;;;;;;;;;;;5.90;99.90;;;;;;5118071;27;19949;-76
2023/05/04 02:22:37;;;;;;;;;;;6.00;99.90;;;;;;5111932;27;19924;-76
2023/05/04 02:25:03;;;;;;;;;;;5.90;99.90;;;;;;5095492;27;20427;-76
2023/05/04 02:27:28;;;;;;;;;;;6.00;99.90;;;;;;5097816;27;19924;-76
2023/05/04 02:29:57;;;;;;;;;;;5.90;99.90;;;;;;5082235;27;20339;-76
2023/05/04 02:32:23;;;;;;;;;;;5.90;99.90;;;;;;5112210;27;20419;-76
2023/05/04 02:34:49;;;;;;;;;;;5.90;99.90;;;;;;5117670;27;19993;-76
2023/05/04 02:37:15;;;;;;;;;;;5.90;99.90;;;;;;5115451;27;19928;-76
2023/05/04 02:39:40;;;;;;;;;;;5.90;99.90;;;;;;5116206;27;19927;-75
2023/05/04 02:42:06;;;;;;;;;;;5.90;99.90;;;;;;5112913;27;20059;-76
2023/05/04 02:44:32;;;;;;;;;;;5.90;99.90;;;;;;5099176;27;19934;-76
2023/05/04 02:46:57;;;;;;;;;;;5.80;99.90;;;;;;5116929;27;19927;-76
2023/05/04 02:49:23;;;;;;;;;;;5.80;99.90;;;;;;5096919;27;19923;-75
2023/05/04 02:51:48;;;;;;;;;;;5.80;99.90;;;;;;5113842;27;19938;-76
2023/05/04 02:54:14;;;;;;;;;;;5.80;99.90;;;;;;5081855;27;19924;-76
2023/05/04 02:56:39;;;;;;;;;;;5.80;99.90;;;;;;5099707;27;19926;-76
2023/05/04 02:59:05;;;;;;;;;;;5.80;99.90;;;;;;5100406;27;20673;-76
2023/05/04 03:01:31;;;;;;;;;;;5.70;99.90;;;;;;5094312;27;20125;-75
2023/05/04 03:03:56;;;;;;;;;;;5.70;99.90;;;;;;5123467;27;19927;-76
2023/05/04 03:06:22;;;;;;;;;;;5.90;99.90;;;;;;5117142;27;19934;-75
2023/05/04 03:08:47;;;;;;;;;;;5.80;99.90;;;;;;5118561;27;20439;-76
2023/05/04 03:11:13;;;;;;;;;;;5.80;99.90;;;;;;5099346;27;19924;-76
2023/05/04 03:13:38;;;;;;;;;;;5.70;99.90;;;;;;5095496;27;19966;-76
2023/05/04 03:16:04;;;;;;;;;;;5.80;99.90;;;;;;5115375;27;19934;-76
2023/05/04 03:18:30;;;;;;;;;;;5.70;99.90;;;;;;5118658;27;19927;-76
2023/05/04 03:20:55;;;;;;;;;;;5.70;99.90;;;;;;5102158;27;19939;-76
2023/05/04 03:23:21;;;;;;;;;;;5.70;99.90;;;;;;5117486;27;20031;-75
2023/05/04 03:25:46;;;;;;;;;;;5.80;99.90;;;;;;5115421;27;19923;-76
2023/05/04 03:28:12;;;;;;;;;;;5.80;99.90;;;;;;5101064;28;19928;-76
2023/05/04 03:30:38;;;;;;;;;;;5.80;99.90;;;;;;5119912;27;19928;-76
2023/05/04 03:33:03;;;;;;;;;;;5.70;99.90;;;;;;5116385;27;19965;-76
2023/05/04 03:35:29;;;;;;;;;;;5.80;99.90;;;;;;5118344;27;20049;-76
2023/05/04 03:37:54;;;;;;;;;;;5.80;99.90;;;;;;5119265;27;19935;-76
2023/05/04 03:40:21;;;;;;;;;;;5.80;99.90;;;;;;5116929;27;20621;-76
2023/05/04 03:42:47;;;;;;;;;;;5.70;99.90;;;;;;5114182;27;19928;-76
2023/05/04 03:45:13;;;;;;;;;;;5.80;99.90;;;;;;5116572;28;20050;-76
2023/05/04 03:47:38;;;;;;;;;;;5.80;99.90;;;;;;5116520;28;19978;-76
2023/05/04 03:50:04;;;;;;;;;;;5.80;99.90;;;;;;5115347;28;19928;-76
2023/05/04 03:52:30;;;;;;;;;;;5.80;99.90;;;;;;5116317;27;19931;-76
2023/05/04 03:54:55;;;;;;;;;;;5.90;99.90;;;;;;5101219;28;19934;-76
2023/05/04 03:57:23;;;;;;;;;;;5.90;99.90;;;;;;5113034;28;19984;-76
2023/05/04 03:59:48;;;;;;;;;;;5.90;99.90;;;;;;5099638;28;20392;-76
2023/05/04 04:02:15;;;;;;;;;;;5.90;99.90;;;;;;5113564;28;19970;-76
2023/05/04 04:04:40;;;;;;;;;;;5.90;99.90;;;;;;5081772;28;19992;-76
2023/05/04 04:07:06;;;;;;;;;;;5.90;99.90;;;;;;5114655;28;20449;-75
2023/05/04 04:09:31;;;;;;;;;;;5.90;99.90;;;;;;5117953;28;19923;-76
2023/05/04 04:11:57;;;;;;;;;;;5.90;99.90;;;;;;5118089;28;19931;-76
2023/05/04 04:14:22;;;;;;;;;;;6.00;99.90;;;;;;5119870;28;19924;-76
2023/05/04 04:16:48;;;;;;;;;;;6.00;99.90;;;;;;5095032;28;19930;-75
2023/05/04 04:19:13;;;;;;;;;;;6.00;99.90;;;;;;5122593;27;19970;-75
2023/05/04 04:21:39;;;;;;;;;;;5.90;99.90;;;;;;5111792;27;19927;-76
2023/05/04 04:24:05;;;;;;;;;;;5.90;99.90;;;;;;5119394;27;20361;-76
2023/05/04 04:26:31;;;;;;;;;;;5.90;99.90;;;;;;5121414;27;19927;-75
2023/05/04 04:28:56;;;;;;;;;;;6.00;99.90;;;;;;5123398;27;19978;-75
2023/05/04 04:31:22;;;;;;;;;;;6.00;99.90;;;;;;5117949;27;19963;-76
2023/05/04 04:33:51;;;;;;;;;;;6.00;99.90;;;;;;5117851;27;19931;-75
2023/05/04 04:36:17;;;;;;;;;;;6.00;99.90;;;;;;5122952;27;19969;-75
2023/05/04 04:38:43;;;;;;;;;;;6.10;99.90;;;;;;5120414;27;19935;-75
2023/05/04 04:41:08;;;;;;;;;;;6.10;99.90;;;;;;5118087;27;19980;-75
2023/05/04 04:43:34;;;;;;;;;;;6.30;99.90;;;;;;5119128;27;20505;-75
2023/05/04 04:46:00;;;;;;;;;;;6.30;99.90;;;;;;5119667;27;19949;-76
2023/05/04 04:48:26;;;;;;;;;;;6.30;99.90;;;;;;5101088;27;19934;-76
2023/05/04 04:50:52;;;;;;;;;;;6.30;99.90;;;;;;5103693;27;20319;-76
2023/05/04 04:53:18;;;;;;;;;;;6.30;99.90;;;;;;5119778;27;19931;-76
2023/05/04 04:55:44;;;;;;;;;;;6.30;99.90;;;;;;5123529;27;20344;-76
2023/05/04 04:58:09;;;;;;;;;;;6.40;99.90;;;;;;5103971;27;19933;-76
2023/05/04 05:00:35;;;;;;;;;;;6.60;99.90;;;;;;5117818;27;19955;-76
2023/05/04 05:03:01;;;;;;;;;;;6.50;99.90;;;;;;5101436;27;19928;-76
2023/05/04 05:05:27;;;;;;;;;;;6.70;99.90;;;;;;5121879;27;19927;-76
2023/05/04 05:07:53;;;;;;;;;;;6.80;99.90;;;;;;5123305;27;20205;-76
2023/05/04 05:10:20;;;;;;;;;;;6.90;99.90;;;;;;5121946;27;19971;-76
2023/05/04 05:12:45;;;;;;;;;;;6.80;99.90;;;;;;5120548;27;20285;-76
2023/05/04 05:15:11;;;;;;;;;;;6.80;99.90;;;;;;5121730;27;20021;-76
2023/05/04 05:17:38;;;;;;;;;;;6.90;99.90;;;;;;5102450;27;20329;-76
2023/05/04 05:20:09;;;;;;;;;;;6.90;99.90;;;;;;5121396;27;20338;-76
2023/05/04 05:22:35;;;;;;;;;;;7.10;99.90;;;;;;5102660;27;19927;-76
2023/05/04 05:25:01;;;;;;;;;;;7.10;99.90;;;;;;5099930;27;19970;-76
2023/05/04 05:27:26;;;;;;;;;;;7.30;99.90;;;;;;5087281;27;19966;-76
2023/05/04 05:29:52;;;;;;;;;;;7.40;99.90;;;;;;5103130;27;20552;-76
2023/05/04 05:32:17;;;;;;;;;;;7.60;99.90;;;;;;5116228;27;19927;-76
2023/05/04 05:34:43;;;;;;;;;;;7.60;99.90;;;;;;5121186;27;19923;-76
2023/05/04 05:37:09;;;;;;;;;;;7.50;99.90;;;;;;5121039;27;20269;-77
2023/05/04 05:39:35;;;;;;;;;;;7.50;99.90;;;;;;5121179;27;19962;-76
2023/05/04 05:42:02;;;;;;;;;;;7.50;99.90;;;;;;5101135;27;19958;-76
2023/05/04 05:44:28;;;;;;;;;;;7.40;99.90;;;;;;5100445;27;20014;-76
2023/05/04 05:46:54;;;;;;;;;;;7.60;99.90;;;;;;5122240;27;20014;-77
2023/05/04 05:49:20;;;;;;;;;;;7.50;99.90;;;;;;5120621;27;19928;-76
2023/05/04 05:51:46;;;;;;;;;;;7.60;99.90;;;;;;5116686;27;20903;-76
2023/05/04 05:54:12;;;;;;;;;;;7.70;99.90;;;;;;5100969;27;20315;-77
2023/05/04 05:56:37;;;;;;;;;;;7.80;99.90;;;;;;5115701;27;19927;-76
2023/05/04 05:59:03;;;;;;;;;;;8.10;99.90;;;;;;5119622;27;19935;-76
2023/05/04 06:01:29;;;;;;;;;;;8.20;99.90;;;;;;5116954;27;19928;-77
2023/05/04 06:03:54;;;;;;;;;;;8.30;99.90;;;;;;5097806;27;19973;-77
2023/05/04 06:06:20;;;;;;;;;;;8.30;99.90;;;;;;5118206;27;19935;-76
2023/05/04 06:08:45;;;;;;;;;;;8.60;99.90;;;;;;5118541;27;20468;-76
2023/05/04 06:11:11;;;;;;;;;;;8.70;99.90;;;;;;5120755;27;19934;-76
2023/05/04 06:13:37;;;;;;;;;;;8.80;99.90;;;;;;5092728;27;20034;-76
2023/05/04 06:16:02;;;;;;;;;;;9.30;99.90;;;;;;5117430;27;19972;-76
2023/05/04 06:18:28;;;;;;;;;;;8.60;99.90;;;;;;5099496;27;19951;-76
2023/05/04 06:20:58;;;;;;;;;;;8.90;99.90;;;;;;5119360;27;19988;-76
2023/05/04 06:23:25;;;;;;;;;;;8.90;99.90;;;;;;5118674;27;19935;-77
2023/05/04 06:25:50;;;;;;;;;;;8.80;99.90;;;;;;5101018;27;19962;-76
2023/05/04 06:28:16;;;;;;;;;;;8.80;99.90;;;;;;5103115;27;19996;-76
2023/05/04 06:30:43;;;;;;;;;;;9.10;99.90;;;;;;5103522;27;19927;-76
2023/05/04 06:33:09;;;;;;;;;;;9.40;99.90;;;;;;5118552;27;20437;-77
2023/05/04 06:35:34;;;;;;;;;;;9.30;99.90;;;;;;5116837;27;19931;-77
2023/05/04 06:38:00;;;;;;;;;;;9.50;99.90;;;;;;5103400;27;19967;-77
2023/05/04 06:40:25;;;;;;;;;;;9.60;99.90;;;;;;5103842;27;19927;-77
2023/05/04 06:42:51;;;;;;;;;;;9.40;99.90;;;;;;5119086;27;19961;-77
2023/05/04 06:45:17;;;;;;;;;;;9.50;99.90;;;;;;5120093;27;20873;-77
2023/05/04 06:47:42;;;;;;;;;;;9.80;99.90;;;;;;5112718;27;19923;-77
2023/05/04 06:50:08;;;;;;;;;;;9.80;99.90;;;;;;5118774;27;19927;-76
2023/05/04 06:52:34;;;;;;;;;;;9.60;99.90;;;;;;5116579;27;19927;-77
2023/05/04 06:55:00;;;;;;;;;;;10.30;99.90;;;;;;5103657;27;20019;-77
2023/05/04 06:57:28;;;;;;;;;;;10.20;99.90;;;;;;5118789;27;19927;-77
2023/05/04 06:59:53;;;;;;;;;;;10.40;99.90;;;;;;5100315;27;20522;-77
2023/05/04 07:02:19;;;;;;;;;;;10.70;99.90;;;;;;5099199;27;19931;-77
2023/05/04 07:04:44;;;;;;;;;;;10.80;99.90;;;;;;5115890;27;20030;-76
2023/05/04 07:07:10;;;;;;;;;;;10.60;99.90;;;;;;5117629;27;20331;-77
2023/05/04 07:09:35;;;;;;;;;;;11.00;99.90;;;;;;5099446;27;19931;-77
2023/05/04 07:12:01;;;;;;;;;;;11.10;99.90;;;;;;5115787;27;20354;-77
2023/05/04 07:14:27;;;;;;;;;;;11.40;99.90;;;;;;5119121;27;19936;-76
2023/05/04 07:16:53;;;;;;;;;;;11.80;99.90;;;;;;5117293;27;19923;-77
2023/05/04 07:19:18;;;;;;;;;;;11.80;99.90;;;;;;5119084;27;19927;-77
2023/05/04 07:21:44;;;;;;;;;;;12.20;99.90;;;;;;5114325;27;19928;-77
2023/05/04 07:24:09;;;;;;;;;;;12.60;99.90;;;;;;5099164;27;19932;-77
2023/05/04 07:26:35;;;;;;;;;;;12.30;99.90;;;;;;5112330;27;19932;-77
2023/05/04 07:29:00;;;;;;;;;;;12.30;99.90;;;;;;5096331;27;19924;-77
2023/05/04 07:31:26;;;;;;;;;;;12.20;99.90;;;;;;5096506;27;20359;-77
2023/05/04 07:33:52;;;;;;;;;;;12.60;99.90;;;;;;5113982;27;20010;-78
2023/05/04 07:36:17;;;;;;;;;;;12.30;99.90;;;;;;5118377;27;20319;-78
2023/05/04 07:38:43;;;;;;;;;;;12.50;99.90;;;;;;5099740;27;19927;-78
2023/05/04 07:41:09;;;;;;;;;;;13.10;99.90;;;;;;5118526;27;20079;-77
2023/05/04 07:43:34;;;;;;;;;;;13.50;99.90;;;;;;5101161;27;20061;-77
2023/05/04 07:46:00;;;;;;;;;;;13.40;99.90;;;;;;5116779;28;20067;-79
2023/05/04 07:48:25;;;;;;;;;;;13.30;99.90;;;;;;5103050;28;19927;-78
2023/05/04 07:50:51;;;;;;;;;;;12.30;99.90;;;;;;5114926;28;20295;-77
2023/05/04 07:53:19;;;;;;;;;;;12.40;99.90;;;;;;5102422;27;20558;-77
2023/05/04 07:55:45;;;;;;;;;;;12.00;99.90;;;;;;5120315;27;20573;-78
2023/05/04 07:58:12;;;;;;;;;;;12.70;99.90;;;;;;5125363;27;19934;-79
2023/05/04 08:00:37;;;;;;;;;;;12.40;99.90;;;;;;5118593;27;19944;-79
2023/05/04 08:03:03;;;;;;;;;;;12.60;99.90;;;;;;5100074;27;19927;-78
2023/05/04 08:05:28;;;;;;;;;;;13.10;99.90;;;;;;5108472;27;19931;-79
2023/05/04 08:07:54;;;;;;;;;;;13.10;99.90;;;;;;5110583;27;19932;-78
2023/05/04 08:10:20;;;;;;;;;;;12.70;99.90;;;;;;5107493;27;19931;-79
2023/05/04 08:12:51;;;;;;;;;;;13.00;99.90;;;;;;5121561;27;19934;-78
2023/05/04 08:15:17;;;;;;;;;;;13.20;99.90;;;;;;5104905;27;19969;-77
2023/05/04 08:17:43;;;;;;;;;;;13.40;99.90;;;;;;5120878;27;19970;-78
2023/05/04 08:20:09;;;;;;;;;;;13.30;99.90;;;;;;5123356;27;19924;-78
2023/05/04 08:22:34;;;;;;;;;;;13.10;99.90;;;;;;5117889;27;19931;-77
2023/05/04 08:25:00;;;;;;;;;;;13.30;99.90;;;;;;5103882;27;19931;-78
2023/05/04 08:27:26;;;;;;;;;;;13.00;99.90;;;;;;5087158;27;20376;-79
2023/05/04 08:29:51;;;;;;;;;;;13.40;99.90;;;;;;5096912;27;19923;-78
2023/05/04 08:32:17;;;;;;;;;;;14.00;99.90;;;;;;5102915;27;20155;-78
2023/05/04 08:34:43;;;;;;;;;;;13.80;99.90;;;;;;5102429;27;20272;-79
2023/05/04 08:37:08;;;;;;;;;;;14.50;99.90;;;;;;5120768;27;21747;-79
2023/05/04 08:39:34;;;;;;;;;;;14.90;99.90;;;;;;5102467;27;20354;-79
2023/05/04 08:42:09;;;;;;;;;;;15.30;99.90;;;;;;5119936;27;20313;-78
2023/05/04 08:44:34;;;;;;;;;;;14.60;99.90;;;;;;5119175;27;20003;-77
2023/05/04 08:47:02;;;;;;;;;;;14.30;99.90;;;;;;5122266;27;20463;-78
2023/05/04 08:49:29;;;;;;;;;;;14.80;99.90;;;;;;5104255;27;19935;-78
2023/05/04 08:51:56;;;;;;;;;;;15.50;99.90;;;;;;5123502;27;19980;-78
2023/05/04 08:54:22;;;;;;;;;;;14.60;99.90;;;;;;5103239;27;20027;-77
2023/05/04 08:56:50;;;;;;;;;;;15.30;99.90;;;;;;5115419;27;20453;-78
2023/05/04 08:59:20;;;;;;;;;;;14.50;99.90;;;;;;5120320;27;19927;-78
2023/05/04 09:01:48;;;;;;;;;;;14.50;99.90;;;;;;5101282;27;19976;-78
2023/05/04 09:04:14;;;;;;;;;;;15.20;99.90;;;;;;5118862;27;19929;-78
2023/05/04 09:06:40;;;;;;;;;;;15.70;99.90;;;;;;5121121;27;19938;-79
2023/05/04 09:09:06;;;;;;;;;;;15.30;99.90;;;;;;5120989;27;19927;-77
2023/05/04 09:11:31;;;;;;;;;;;15.80;99.90;;;;;;5122441;27;19945;-78
2023/05/04 09:13:57;;;;;;;;;;;15.30;99.90;;;;;;5123635;27;20042;-78
2023/05/04 09:16:32;;;;;;;;;;;15.40;99.90;;;;;;5124430;27;19947;-78
2023/05/04 09:18:57;;;;;;;;;;;15.20;99.90;;;;;;5116533;27;19934;-78
2023/05/04 09:21:30;;;;;;;;;;;15.00;99.90;;;;;;5123044;27;19927;-78
2023/05/04 09:23:56;;;;;;;;;;;15.60;99.90;;;;;;5121746;27;19923;-78
2023/05/04 09:26:28;;;;;;;;;;;16.20;99.90;;;;;;5122980;27;19928;-79
2023/05/04 09:28:53;;;;;;;;;;;16.30;99.90;;;;;;5122651;27;19931;-79
2023/05/04 09:31:19;;;;;;;;;;;15.70;99.90;;;;;;5114722;27;19928;-80
2023/05/04 09:33:45;;;;;;;;;;;16.10;99.90;;;;;;5116076;27;20001;-78
2023/05/04 09:36:15;;;;;;;;;;;16.40;99.90;;;;;;5101800;27;20426;-79
2023/05/04 09:38:40;;;;;;;;;;;15.80;99.90;;;;;;5083429;27;19938;-78
2023/05/04 09:41:06;;;;;;;;;;;16.00;99.90;;;;;;5098224;27;21776;-77
2023/05/04 09:43:39;;;;;;;;;;;15.90;99.90;;;;;;5095063;27;19931;-77
2023/05/04 09:46:05;;;;;;;;;;;16.80;99.90;;;;;;5091964;27;19969;-77
2023/05/04 09:48:30;;;;;;;;;;;16.10;99.90;;;;;;5096354;27;19932;-76
2023/05/04 09:50:57;;;;;;;;;;;16.30;99.90;;;;;;5106768;27;20395;-76
2023/05/04 09:53:27;;;;;;;;;;;16.10;99.90;;;;;;5109936;27;19923;-76
2023/05/04 09:55:56;;;;;;;;;;;16.50;99.90;;;;;;5089293;27;20030;-76
2023/05/04 09:58:22;;;;;;;;;;;16.30;99.90;;;;;;5082715;27;19978;-76
2023/05/04 10:00:48;;;;;;;;;;;17.10;99.90;;;;;;5101974;27;20590;-77
2023/05/04 10:03:14;;;;;;;;;;;16.40;99.90;;;;;;5101294;27;19935;-77
2023/05/04 10:05:39;;;;;;;;;;;16.70;99.90;;;;;;5085473;27;20535;-77
2023/05/04 10:08:05;;;;;;;;;;;16.80;99.90;;;;;;5087649;27;19933;-78
2023/05/04 10:10:31;;;;;;;;;;;16.50;99.90;;;;;;5083851;27;19935;-77
2023/05/04 10:12:56;;;;;;;;;;;16.80;99.90;;;;;;5094774;27;19931;-77
2023/05/04 10:15:23;;;;;;;;;;;17.20;99.90;;;;;;5097779;27;19924;-77
2023/05/04 10:17:48;;;;;;;;;;;17.40;99.90;;;;;;5098721;27;19934;-77
2023/05/04 10:20:22;;;;;;;;;;;17.90;99.90;;;;;;5097794;27;19932;-78
2023/05/04 10:23:03;;;;;;;;;;;17.80;99.90;;;;;;5097367;27;19934;-78
2023/05/04 10:25:43;;;;;;;;;;;17.80;99.90;;;;;;5093524;27;19924;-78
2023/05/04 10:28:17;;;;;;;;;;;17.90;99.90;;;;;;5115122;27;19939;-78
2023/05/04 10:30:43;;;;;;;;;;;17.60;99.90;;;;;;5092696;27;20292;-77
2023/05/04 10:33:09;;;;;;;;;;;17.30;99.90;;;;;;5108764;27;19932;-77
2023/05/04 10:35:34;;;;;;;;;;;18.10;99.90;;;;;;5097111;27;19955;-77
2023/05/04 10:38:00;;;;;;;;;;;17.40;99.90;;;;;;5089427;27;20039;-78
2023/05/04 10:40:36;;;;;;;;;;;17.60;99.90;;;;;;5111287;27;19934;-78
2023/05/04 10:43:01;;;;;;;;;;;18.30;99.90;;;;;;5096626;27;19949;-77
2023/05/04 10:45:40;;;;;;;;;;;18.40;99.90;;;;;;5093585;27;19928;-77
2023/05/04 10:48:07;;;;;;;;;;;17.90;99.90;;;;;;5087157;27;19938;-78
2023/05/04 10:50:46;;;;;;;;;;;18.60;99.90;;;;;;5089666;27;20483;-78
2023/05/04 10:53:12;;;;;;;;;;;18.00;99.90;;;;;;5087636;27;19927;-78
2023/05/04 10:55:39;;;;;;;;;;;17.70;99.90;;;;;;5109991;27;19927;-78
2023/05/04 10:58:05;;;;;;;;;;;18.00;99.90;;;;;;5103157;27;19927;-78
2023/05/04 11:00:37;;;;;;;;;;;18.10;99.60;;;;;;5110261;27;19950;-77
2023/05/04 11:03:03;;;;;;;;;;;17.70;99.90;;;;;;5095081;27;19923;-77
2023/05/04 11:05:38;;;;;;;;;;;18.00;99.90;;;;;;5107571;27;19962;-77
2023/05/04 11:08:13;;;;;;;;;;;18.00;99.90;;;;;;5074434;27;20431;-78
2023/05/04 11:10:39;;;;;;;;;;;18.10;99.90;;;;;;5092377;27;19924;-77
2023/05/04 11:13:09;;;;;;;;;;;18.10;99.90;;;;;;5085044;27;19938;-77
2023/05/04 11:15:42;;;;;;;;;;;18.60;98.90;;;;;;5072965;28;19928;-79
2023/05/04 11:18:08;;;;;;;;;;;18.50;99.90;;;;;;5077849;28;19932;-78
2023/05/04 11:20:33;;;;;;;;;;;18.70;99.50;;;;;;5085887;27;19952;-78
2023/05/04 11:22:59;;;;;;;;;;;18.30;97.90;;;;;;5075362;27;19927;-78
2023/05/04 11:25:28;;;;;;;;;;;19.00;99.70;;;;;;5109697;27;20011;-77
2023/05/04 11:27:54;;;;;;;;;;;18.80;97.40;;;;;;5090997;27;19927;-77
2023/05/04 11:30:20;;;;;;;;;;;19.40;99.70;;;;;;5090640;27;19950;-78
2023/05/04 11:32:45;;;;;;;;;;;19.10;97.80;;;;;;5088120;27;20049;-78
2023/05/04 11:35:15;;;;;;;;;;;19.90;98.20;;;;;;5091455;27;20042;-78
2023/05/04 11:37:41;;;;;;;;;;;19.30;95.00;;;;;;5073753;27;19927;-78
2023/05/04 11:40:08;;;;;;;;;;;19.40;95.20;;;;;;5088938;27;19962;-78
2023/05/04 11:42:34;;;;;;;;;;;19.10;96.20;;;;;;5089002;28;20501;-79
2023/05/04 11:45:00;;;;;;;;;;;18.90;94.70;;;;;;5074941;27;20669;-78
2023/05/04 11:47:26;;;;;;;;;;;19.20;97.40;;;;;;5093335;28;19927;-78
2023/05/04 11:49:52;;;;;;;;;;;19.00;98.20;;;;;;5087731;27;19931;-79
2023/05/04 11:52:21;;;;;;;;;;;19.20;94.90;;;;;;5088073;28;19935;-78
2023/05/04 11:54:56;;;;;;;;;;;18.90;96.40;;;;;;5088039;28;20296;-78
2023/05/04 11:57:21;;;;;;;;;;;18.70;92.40;;;;;;5106348;27;20658;-77
2023/05/04 11:59:47;;;;;;;;;;;18.90;96.20;;;;;;5094759;28;20004;-77
2023/05/04 12:02:16;;;;;;;;;;;19.60;94.10;;;;;;5091416;27;19932;-78
2023/05/04 12:05:04;;;;;;;;;;;19.60;95.50;;;;;;5090353;28;20495;-77
2023/05/04 12:07:35;;;;;;;;;;;18.40;91.60;;;;;;5092439;27;19931;-80
2023/05/04 12:10:00;;;;;;;;;;;19.20;94.90;;;;;;5089878;28;19927;-78
2023/05/04 12:12:33;;;;;;;;;;;19.00;93.00;;;;;;5108175;28;20245;-77
2023/05/04 12:14:58;;;;;;;;;;;19.00;93.90;;;;;;5109047;27;20307;-77
2023/05/04 12:17:24;;;;;;;;;;;19.10;92.90;;;;;;5091154;28;19927;-78
2023/05/04 12:19:53;;;;;;;;;;;19.50;95.10;;;;;;5086633;28;19935;-78
2023/05/04 12:22:27;;;;;;;;;;;19.30;92.90;;;;;;5084294;28;20686;-78
2023/05/04 12:24:53;;;;;;;;;;;19.10;93.10;;;;;;5107118;27;19930;-78
2023/05/04 12:27:18;;;;;;;;;;;19.60;94.40;;;;;;5090776;27;19927;-78
2023/05/04 12:29:44;;;;;;;;;;;19.60;93.40;;;;;;5092237;27;19927;-78
2023/05/04 12:32:09;;;;;;;;;;;19.40;93.50;;;;;;5105417;27;19989;-78
2023/05/04 12:34:36;;;;;;;;;;;20.10;94.50;;;;;;5094638;28;19927;-78
2023/05/04 12:37:01;;;;;;;;;;;19.70;95.00;;;;;;5093563;27;19949;-78
2023/05/04 12:39:28;;;;;;;;;;;20.40;94.80;;;;;;5097241;27;20254;-81
2023/05/04 12:41:54;;;;;;;;;;;20.20;94.20;;;;;;5114206;27;19930;-77
2023/05/04 12:44:20;;;;;;;;;;;19.60;92.30;;;;;;5100963;27;19927;-78
2023/05/04 12:46:45;;;;;;;;;;;19.40;91.50;;;;;;5098816;27;20431;-78
2023/05/04 12:49:13;;;;;;;;;;;19.80;92.80;;;;;;5098101;27;20461;-77
2023/05/04 12:51:38;;;;;;;;;;;20.30;94.20;;;;;;5113180;27;20018;-79
2023/05/04 12:54:04;;;;;;;;;;;20.20;91.90;;;;;;5099023;27;20030;-78
2023/05/04 12:56:30;;;;;;;;;;;19.90;91.40;;;;;;5099830;27;19933;-77
2023/05/04 12:58:56;;;;;;;;;;;19.90;92.90;;;;;;5117882;27;19934;-78
2023/05/04 13:01:22;;;;;;;;;;;20.60;93.70;;;;;;5100511;27;20330;-77
2023/05/04 13:03:47;;;;;;;;;;;20.30;92.40;;;;;;5098705;27;20288;-78
2023/05/04 13:06:13;;;;;;;;;;;20.90;94.20;;;;;;5097605;27;19970;-78
2023/05/04 13:08:38;;;;;;;;;;;20.30;91.20;;;;;;5083712;27;19992;-77
2023/05/04 13:11:04;;;;;;;;;;;21.20;94.40;;;;;;5108356;27;20375;-77
2023/05/04 13:13:29;;;;;;;;;;;21.70;93.00;;;;;;5086969;27;19927;-78
2023/05/04 13:15:55;;;;;;;;;;;21.90;92.40;;;;;;5113789;27;19939;-78
2023/05/04 13:18:25;;;;;;;;;;;21.40;93.60;;;;;;5097217;27;20602;-77
2023/05/04 13:20:54;;;;;;;;;;;21.00;90.70;;;;;;5097495;27;19928;-78
2023/05/04 13:23:20;;;;;;;;;;;20.80;91.20;;;;;;5095095;27;20085;-78
2023/05/04 13:25:46;;;;;;;;;;;21.00;91.80;;;;;;5097060;27;20006;-77
2023/05/04 13:28:12;;;;;;;;;;;21.50;91.80;;;;;;5100658;27;19932;-78
2023/05/04 13:30:37;;;;;;;;;;;21.60;92.50;;;;;;5099651;27;20291;-78
2023/05/04 13:33:03;;;;;;;;;;;20.50;88.90;;;;;;5092429;27;19931;-79
2023/05/04 13:35:28;;;;;;;;;;;20.40;91.50;;;;;;5096725;27;19931;-77
2023/05/04 13:37:54;;;;;;;;;;;20.60;91.10;;;;;;5099885;27;19977;-78
2023/05/04 13:40:19;;;;;;;;;;;20.30;90.20;;;;;;5094856;27;19928;-78
2023/05/04 13:42:45;;;;;;;;;;;20.90;90.70;;;;;;5091496;27;19953;-78
2023/05/04 13:45:11;;;;;;;;;;;20.40;88.40;;;;;;5098059;27;19924;-78
2023/05/04 13:47:38;;;;;;;;;;;20.30;90.40;;;;;;5096257;27;19938;-78
2023/05/04 13:50:04;;;;;;;;;;;21.00;90.50;;;;;;5090024;27;19923;-77
2023/05/04 13:52:30;;;;;;;;;;;21.50;89.60;;;;;;5091934;27;19938;-77
2023/05/04 13:54:56;;;;;;;;;;;21.00;90.80;;;;;;5097566;27;19967;-78
2023/05/04 13:57:22;;;;;;;;;;;20.90;91.60;;;;;;5112805;27;20430;-79
2023/05/04 13:59:47;;;;;;;;;;;20.90;89.10;;;;;;5118188;27;19988;-77
2023/05/04 14:02:13;;;;;;;;;;;21.10;91.30;;;;;;5114188;27;19928;-78
2023/05/04 14:04:38;;;;;;;;;;;21.60;91.30;;;;;;5116311;27;20724;-77
2023/05/04 14:07:04;;;;;;;;;;;20.60;87.40;;;;;;5114007;27;19993;-78
2023/05/04 14:09:30;;;;;;;;;;;20.70;88.90;;;;;;5117162;27;19927;-79
2023/05/04 14:12:01;;;;;;;;;;;20.90;90.80;;;;;;5101101;27;22011;-77
2023/05/04 14:14:27;;;;;;;;;;;21.60;91.90;;;;;;5116305;27;19935;-77
2023/05/04 14:16:53;;;;;;;;;;;21.50;91.60;;;;;;5095119;27;19950;-78
2023/05/04 14:19:18;;;;;;;;;;;20.90;89.80;;;;;;5103478;27;19931;-78